sensor_id;sensor_type;location;lat;lon;timestamp;pressure;altitude;pressure_sealevel;temperature;humidity
72798;BME280;61084;55.816;37.036;2023-01-10T00:00:25;101369.34;;;-14.60;63.24
72798;BME280;61084;55.816;37.036;2023-01-10T00:02:52;101367.00;;;-14.69;63.25
72798;BME280;61084;55.816;37.036;2023-01-10T00:05:18;101363.59;;;-14.70;62.71
72798;BME280;61084;55.816;37.036;2023-01-10T00:07:44;101367.88;;;-14.68;62.82
72798;BME280;61084;55.816;37.036;2023-01-10T00:10:10;101360.53;;;-14.65;62.64
72798;BME280;61084;55.816;37.036;2023-01-10T00:12:36;101371.66;;;-14.63;62.77
72798;BME280;61084;55.816;37.036;2023-01-10T00:15:21;101367.81;;;-14.58;62.64
72798;BME280;61084;55.816;37.036;2023-01-10T00:17:46;101352.06;;;-14.56;62.88
72798;BME280;61084;55.816;37.036;2023-01-10T00:20:12;101349.91;;;-14.51;62.58
72798;BME280;61084;55.816;37.036;2023-01-10T00:22:38;101351.31;;;-14.55;62.63
72798;BME280;61084;55.816;37.036;2023-01-10T00:25:04;101361.25;;;-14.56;62.21
72798;BME280;61084;55.816;37.036;2023-01-10T00:27:30;101356.88;;;-14.59;62.59
72798;BME280;61084;55.816;37.036;2023-01-10T00:29:56;101349.19;;;-14.60;62.68
72798;BME280;61084;55.816;37.036;2023-01-10T00:32:25;101349.84;;;-14.63;63.14
72798;BME280;61084;55.816;37.036;2023-01-10T00:34:51;101336.88;;;-14.68;62.95
72798;BME280;61084;55.816;37.036;2023-01-10T00:37:17;101336.13;;;-14.66;62.78
72798;BME280;61084;55.816;37.036;2023-01-10T00:39:43;101336.78;;;-14.69;63.29
72798;BME280;61084;55.816;37.036;2023-01-10T00:42:10;101344.56;;;-14.66;62.84
72798;BME280;61084;55.816;37.036;2023-01-10T00:44:55;101340.66;;;-14.62;62.80
72798;BME280;61084;55.816;37.036;2023-01-10T00:47:20;101335.59;;;-14.62;62.37
72798;BME280;61084;55.816;37.036;2023-01-10T00:49:46;101325.00;;;-14.58;63.01
72798;BME280;61084;55.816;37.036;2023-01-10T00:52:12;101327.75;;;-14.55;62.73
72798;BME280;61084;55.816;37.036;2023-01-10T00:54:38;101331.38;;;-14.52;62.97
72798;BME280;61084;55.816;37.036;2023-01-10T00:57:03;101325.47;;;-14.52;63.14
72798;BME280;61084;55.816;37.036;2023-01-10T00:59:29;101328.13;;;-14.51;63.10
72798;BME280;61084;55.816;37.036;2023-01-10T01:01:55;101329.00;;;-14.50;62.31
72798;BME280;61084;55.816;37.036;2023-01-10T01:04:21;101316.41;;;-14.50;62.62
72798;BME280;61084;55.816;37.036;2023-01-10T01:06:47;101321.19;;;-14.53;62.43
72798;BME280;61084;55.816;37.036;2023-01-10T01:09:15;101318.38;;;-14.46;62.71
72798;BME280;61084;55.816;37.036;2023-01-10T01:11:41;101316.88;;;-14.44;62.97
72798;BME280;61084;55.816;37.036;2023-01-10T01:14:07;101316.88;;;-14.44;62.61
72798;BME280;61084;55.816;37.036;2023-01-10T01:16:33;101322.91;;;-14.42;62.75
72798;BME280;61084;55.816;37.036;2023-01-10T01:18:58;101321.00;;;-14.45;62.63
72798;BME280;61084;55.816;37.036;2023-01-10T01:21:24;101316.50;;;-14.49;62.88
72798;BME280;61084;55.816;37.036;2023-01-10T01:23:54;101330.63;;;-14.51;62.85
72798;BME280;61084;55.816;37.036;2023-01-10T01:26:24;101326.34;;;-14.52;62.92
72798;BME280;61084;55.816;37.036;2023-01-10T01:28:51;101329.00;;;-14.50;62.60
72798;BME280;61084;55.816;37.036;2023-01-10T01:31:16;101314.09;;;-14.47;62.71
72798;BME280;61084;55.816;37.036;2023-01-10T01:33:42;101323.00;;;-14.41;62.64
72798;BME280;61084;55.816;37.036;2023-01-10T01:36:09;101316.44;;;-14.39;62.67
72798;BME280;61084;55.816;37.036;2023-01-10T01:38:36;101319.94;;;-14.37;62.99
72798;BME280;61084;55.816;37.036;2023-01-10T01:41:03;101315.91;;;-14.35;62.53
72798;BME280;61084;55.816;37.036;2023-01-10T01:43:29;101311.00;;;-14.33;63.09
72798;BME280;61084;55.816;37.036;2023-01-10T01:46:01;101312.72;;;-14.32;62.73
72798;BME280;61084;55.816;37.036;2023-01-10T01:48:38;101307.06;;;-14.30;63.04
72798;BME280;61084;55.816;37.036;2023-01-10T01:54:09;101309.47;;;-14.31;62.61
72798;BME280;61084;55.816;37.036;2023-01-10T01:56:44;101294.66;;;-14.27;62.95
72798;BME280;61084;55.816;37.036;2023-01-10T01:59:24;101299.69;;;-14.27;62.92
72798;BME280;61084;55.816;37.036;2023-01-10T02:01:56;101306.06;;;-14.20;63.07
72798;BME280;61084;55.816;37.036;2023-01-10T02:04:33;101304.53;;;-14.18;62.74
72798;BME280;61084;55.816;37.036;2023-01-10T02:07:00;101315.06;;;-14.12;62.75
72798;BME280;61084;55.816;37.036;2023-01-10T02:09:37;101312.00;;;-14.08;62.57
72798;BME280;61084;55.816;37.036;2023-01-10T02:12:06;101311.47;;;-14.04;63.00
72798;BME280;61084;55.816;37.036;2023-01-10T02:14:35;101307.41;;;-14.02;62.36
72798;BME280;61084;55.816;37.036;2023-01-10T02:17:01;101313.25;;;-14.03;62.74
72798;BME280;61084;55.816;37.036;2023-01-10T02:25:09;101316.22;;;-13.97;62.85
72798;BME280;61084;55.816;37.036;2023-01-10T02:38:36;101313.72;;;-13.85;62.54
72798;BME280;61084;55.816;37.036;2023-01-10T02:43:53;101305.81;;;-13.90;62.90
72798;BME280;61084;55.816;37.036;2023-01-10T02:46:27;101309.75;;;-13.94;62.84
72798;BME280;61084;55.816;37.036;2023-01-10T02:48:54;101303.06;;;-13.93;62.66
72798;BME280;61084;55.816;37.036;2023-01-10T02:51:27;101306.47;;;-13.93;62.81
72798;BME280;61084;55.816;37.036;2023-01-10T02:54:11;101298.00;;;-13.93;62.44
72798;BME280;61084;55.816;37.036;2023-01-10T02:57:00;101286.19;;;-13.94;62.76
72798;BME280;61084;55.816;37.036;2023-01-10T03:10:41;101290.47;;;-13.81;62.68
72798;BME280;61084;55.816;37.036;2023-01-10T03:15:41;101286.31;;;-13.81;62.79
72798;BME280;61084;55.816;37.036;2023-01-10T03:18:14;101288.16;;;-13.78;62.79
72798;BME280;61084;55.816;37.036;2023-01-10T03:20:46;101293.22;;;-13.78;62.67
72798;BME280;61084;55.816;37.036;2023-01-10T03:23:13;101295.72;;;-13.78;62.76
72798;BME280;61084;55.816;37.036;2023-01-10T03:25:43;101304.41;;;-13.75;63.23
72798;BME280;61084;55.816;37.036;2023-01-10T03:28:25;101317.47;;;-13.69;63.01
72798;BME280;61084;55.816;37.036;2023-01-10T03:30:57;101317.81;;;-13.64;63.08
72798;BME280;61084;55.816;37.036;2023-01-10T03:33:31;101317.50;;;-13.57;63.08
72798;BME280;61084;55.816;37.036;2023-01-10T03:38:54;101321.34;;;-13.51;63.06
72798;BME280;61084;55.816;37.036;2023-01-10T03:41:34;101330.78;;;-13.48;63.33
72798;BME280;61084;55.816;37.036;2023-01-10T03:44:23;101335.38;;;-13.43;63.15
72798;BME280;61084;55.816;37.036;2023-01-10T03:50:17;101330.91;;;-13.35;63.09
72798;BME280;61084;55.816;37.036;2023-01-10T03:52:44;101327.81;;;-13.43;63.40
72798;BME280;61084;55.816;37.036;2023-01-10T03:55:12;101331.00;;;-13.45;63.27
72798;BME280;61084;55.816;37.036;2023-01-10T03:57:41;101329.59;;;-13.42;62.95
72798;BME280;61084;55.816;37.036;2023-01-10T04:00:11;101340.88;;;-13.37;62.69
72798;BME280;61084;55.816;37.036;2023-01-10T04:02:37;101343.53;;;-13.35;62.58
72798;BME280;61084;55.816;37.036;2023-01-10T04:05:04;101348.03;;;-13.31;62.86
72798;BME280;61084;55.816;37.036;2023-01-10T04:07:30;101349.34;;;-13.36;62.46
72798;BME280;61084;55.816;37.036;2023-01-10T04:09:56;101342.97;;;-13.31;63.00
72798;BME280;61084;55.816;37.036;2023-01-10T04:12:22;101343.50;;;-13.24;62.95
72798;BME280;61084;55.816;37.036;2023-01-10T04:14:48;101346.38;;;-13.19;63.25
72798;BME280;61084;55.816;37.036;2023-01-10T04:17:15;101341.53;;;-13.28;62.88
72798;BME280;61084;55.816;37.036;2023-01-10T04:19:41;101342.84;;;-13.33;62.87
72798;BME280;61084;55.816;37.036;2023-01-10T04:22:07;101347.91;;;-13.33;62.65
72798;BME280;61084;55.816;37.036;2023-01-10T04:24:33;101338.25;;;-13.27;63.11
72798;BME280;61084;55.816;37.036;2023-01-10T04:26:59;101334.19;;;-13.25;62.84
72798;BME280;61084;55.816;37.036;2023-01-10T04:29:25;101352.72;;;-13.24;62.58
72798;BME280;61084;55.816;37.036;2023-01-10T04:31:51;101347.81;;;-13.23;62.73
72798;BME280;61084;55.816;37.036;2023-01-10T04:34:18;101351.84;;;-13.13;62.83
72798;BME280;61084;55.816;37.036;2023-01-10T04:36:47;101349.00;;;-13.06;62.87
72798;BME280;61084;55.816;37.036;2023-01-10T04:39:14;101364.34;;;-13.03;62.72
72798;BME280;61084;55.816;37.036;2023-01-10T04:41:40;101353.31;;;-13.05;62.22
72798;BME280;61084;55.816;37.036;2023-01-10T04:44:06;101360.06;;;-13.04;62.51
72798;BME280;61084;55.816;37.036;2023-01-10T04:46:32;101366.22;;;-13.00;62.96
72798;BME280;61084;55.816;37.036;2023-01-10T04:48:58;101359.41;;;-13.01;62.66
72798;BME280;61084;55.816;37.036;2023-01-10T04:51:25;101372.91;;;-13.01;62.54
72798;BME280;61084;55.816;37.036;2023-01-10T04:53:51;101373.91;;;-12.99;62.69
72798;BME280;61084;55.816;37.036;2023-01-10T04:56:19;101368.84;;;-12.99;63.19
72798;BME280;61084;55.816;37.036;2023-01-10T04:58:45;101378.72;;;-13.02;62.81
72798;BME280;61084;55.816;37.036;2023-01-10T05:01:16;101372.78;;;-13.02;63.00
72798;BME280;61084;55.816;37.036;2023-01-10T05:03:43;101384.88;;;-12.98;62.58
72798;BME280;61084;55.816;37.036;2023-01-10T05:06:09;101386.72;;;-12.96;62.67
72798;BME280;61084;55.816;37.036;2023-01-10T05:08:35;101376.84;;;-12.93;62.95
72798;BME280;61084;55.816;37.036;2023-01-10T05:11:01;101377.94;;;-12.89;62.66
72798;BME280;61084;55.816;37.036;2023-01-10T05:13:27;101385.84;;;-12.85;62.63
72798;BME280;61084;55.816;37.036;2023-01-10T05:15:54;101391.13;;;-12.82;62.70
72798;BME280;61084;55.816;37.036;2023-01-10T05:18:21;101390.81;;;-12.75;62.67
72798;BME280;61084;55.816;37.036;2023-01-10T05:20:47;101392.78;;;-12.71;62.75
72798;BME280;61084;55.816;37.036;2023-01-10T05:23:13;101390.25;;;-12.71;62.67
72798;BME280;61084;55.816;37.036;2023-01-10T05:25:38;101398.81;;;-12.69;62.81
72798;BME280;61084;55.816;37.036;2023-01-10T05:28:04;101393.97;;;-12.66;62.81
72798;BME280;61084;55.816;37.036;2023-01-10T05:30:30;101394.09;;;-12.64;62.85
72798;BME280;61084;55.816;37.036;2023-01-10T05:32:56;101401.44;;;-12.67;62.77
72798;BME280;61084;55.816;37.036;2023-01-10T05:35:21;101400.44;;;-12.69;62.74
72798;BME280;61084;55.816;37.036;2023-01-10T05:37:47;101397.25;;;-12.67;62.61
72798;BME280;61084;55.816;37.036;2023-01-10T05:40:13;101408.25;;;-12.66;62.68
72798;BME280;61084;55.816;37.036;2023-01-10T05:42:39;101415.75;;;-12.68;62.96
72798;BME280;61084;55.816;37.036;2023-01-10T05:45:05;101408.91;;;-12.69;62.58
72798;BME280;61084;55.816;37.036;2023-01-10T05:47:31;101403.13;;;-12.68;63.28
72798;BME280;61084;55.816;37.036;2023-01-10T05:49:56;101409.25;;;-12.64;62.61
72798;BME280;61084;55.816;37.036;2023-01-10T05:52:22;101405.28;;;-12.61;62.88
72798;BME280;61084;55.816;37.036;2023-01-10T05:54:48;101399.13;;;-12.53;62.93
72798;BME280;61084;55.816;37.036;2023-01-10T05:57:13;101403.63;;;-12.49;62.61
72798;BME280;61084;55.816;37.036;2023-01-10T05:59:39;101414.06;;;-12.44;62.68
72798;BME280;61084;55.816;37.036;2023-01-10T06:02:05;101430.41;;;-12.39;62.90
72798;BME280;61084;55.816;37.036;2023-01-10T06:04:31;101423.63;;;-12.40;62.93
72798;BME280;61084;55.816;37.036;2023-01-10T06:06:56;101415.91;;;-12.42;62.95
72798;BME280;61084;55.816;37.036;2023-01-10T06:09:22;101429.75;;;-12.37;63.29
72798;BME280;61084;55.816;37.036;2023-01-10T06:11:48;101430.63;;;-12.36;62.93
72798;BME280;61084;55.816;37.036;2023-01-10T06:14:14;101433.91;;;-12.37;63.33
72798;BME280;61084;55.816;37.036;2023-01-10T06:16:44;101431.72;;;-12.32;63.08
72798;BME280;61084;55.816;37.036;2023-01-10T06:19:10;101443.59;;;-12.31;62.60
72798;BME280;61084;55.816;37.036;2023-01-10T06:21:36;101437.88;;;-12.29;63.33
72798;BME280;61084;55.816;37.036;2023-01-10T06:24:02;101446.31;;;-12.28;63.26
72798;BME280;61084;55.816;37.036;2023-01-10T06:26:28;101442.38;;;-12.25;63.02
72798;BME280;61084;55.816;37.036;2023-01-10T06:28:53;101435.22;;;-12.19;62.90
72798;BME280;61084;55.816;37.036;2023-01-10T06:31:19;101444.66;;;-12.16;63.39
72798;BME280;61084;55.816;37.036;2023-01-10T06:33:45;101431.22;;;-12.15;62.94
72798;BME280;61084;55.816;37.036;2023-01-10T06:36:11;101429.72;;;-12.13;63.11
72798;BME280;61084;55.816;37.036;2023-01-10T06:38:37;101435.75;;;-12.11;63.00
72798;BME280;61084;55.816;37.036;2023-01-10T06:41:02;101440.13;;;-12.09;63.14
72798;BME280;61084;55.816;37.036;2023-01-10T06:43:42;101453.00;;;-12.06;62.97
72798;BME280;61084;55.816;37.036;2023-01-10T06:46:10;101460.91;;;-12.01;63.36
72798;BME280;61084;55.816;37.036;2023-01-10T06:48:36;101454.28;;;-11.99;63.36
72798;BME280;61084;55.816;37.036;2023-01-10T06:51:04;101455.28;;;-11.97;63.35
72798;BME280;61084;55.816;37.036;2023-01-10T06:53:30;101447.91;;;-11.94;63.00
72798;BME280;61084;55.816;37.036;2023-01-10T06:55:57;101457.56;;;-11.89;63.12
72798;BME280;61084;55.816;37.036;2023-01-10T06:58:23;101455.13;;;-11.87;63.07
72798;BME280;61084;55.816;37.036;2023-01-10T07:00:49;101463.72;;;-11.85;63.39
72798;BME280;61084;55.816;37.036;2023-01-10T07:03:15;101448.31;;;-11.88;63.40
72798;BME280;61084;55.816;37.036;2023-01-10T07:05:42;101455.56;;;-11.81;63.33
72798;BME280;61084;55.816;37.036;2023-01-10T07:08:08;101463.34;;;-11.78;63.02
72798;BME280;61084;55.816;37.036;2023-01-10T07:10:33;101455.19;;;-11.74;63.34
72798;BME280;61084;55.816;37.036;2023-01-10T07:12:59;101454.66;;;-11.70;63.06
72798;BME280;61084;55.816;37.036;2023-01-10T07:15:26;101455.63;;;-11.68;63.11
72798;BME280;61084;55.816;37.036;2023-01-10T07:17:52;101450.03;;;-11.63;63.42
72798;BME280;61084;55.816;37.036;2023-01-10T07:20:18;101456.50;;;-11.55;63.33
72798;BME280;61084;55.816;37.036;2023-01-10T07:22:52;101458.50;;;-11.50;63.19
72798;BME280;61084;55.816;37.036;2023-01-10T07:25:18;101459.56;;;-11.47;63.53
72798;BME280;61084;55.816;37.036;2023-01-10T07:27:43;101455.25;;;-11.48;63.52
72798;BME280;61084;55.816;37.036;2023-01-10T07:30:10;101459.56;;;-11.47;63.12
72798;BME280;61084;55.816;37.036;2023-01-10T07:32:35;101463.75;;;-11.47;62.83
72798;BME280;61084;55.816;37.036;2023-01-10T07:35:01;101472.31;;;-11.45;63.29
72798;BME280;61084;55.816;37.036;2023-01-10T07:37:28;101468.53;;;-11.39;62.93
72798;BME280;61084;55.816;37.036;2023-01-10T07:39:54;101483.28;;;-11.33;63.20
72798;BME280;61084;55.816;37.036;2023-01-10T07:42:20;101487.56;;;-11.32;63.15
72798;BME280;61084;55.816;37.036;2023-01-10T07:44:46;101492.75;;;-11.31;63.22
72798;BME280;61084;55.816;37.036;2023-01-10T07:47:12;101482.13;;;-11.25;63.10
72798;BME280;61084;55.816;37.036;2023-01-10T07:49:38;101486.03;;;-11.17;63.07
72798;BME280;61084;55.816;37.036;2023-01-10T07:52:04;101484.13;;;-11.08;63.18
72798;BME280;61084;55.816;37.036;2023-01-10T07:54:32;101488.81;;;-11.01;62.90
72798;BME280;61084;55.816;37.036;2023-01-10T07:56:57;101489.88;;;-10.98;63.09
72798;BME280;61084;55.816;37.036;2023-01-10T07:59:23;101486.69;;;-10.95;63.12
72798;BME280;61084;55.816;37.036;2023-01-10T08:01:49;101481.69;;;-10.94;63.27
72798;BME280;61084;55.816;37.036;2023-01-10T08:04:15;101482.72;;;-10.92;62.87
72798;BME280;61084;55.816;37.036;2023-01-10T08:06:40;101479.59;;;-10.88;63.34
72798;BME280;61084;55.816;37.036;2023-01-10T08:09:06;101470.03;;;-10.92;63.02
72798;BME280;61084;55.816;37.036;2023-01-10T08:11:32;101477.81;;;-10.89;63.16
72798;BME280;61084;55.816;37.036;2023-01-10T08:13:58;101477.22;;;-10.85;63.46
72798;BME280;61084;55.816;37.036;2023-01-10T08:16:23;101477.44;;;-10.82;63.58
72798;BME280;61084;55.816;37.036;2023-01-10T08:18:49;101473.44;;;-10.78;63.38
72798;BME280;61084;55.816;37.036;2023-01-10T08:21:15;101478.63;;;-10.76;63.56
72798;BME280;61084;55.816;37.036;2023-01-10T08:23:41;101482.03;;;-10.76;63.68
72798;BME280;61084;55.816;37.036;2023-01-10T08:26:07;101489.25;;;-10.69;63.68
72798;BME280;61084;55.816;37.036;2023-01-10T08:28:33;101486.25;;;-10.63;63.47
72798;BME280;61084;55.816;37.036;2023-01-10T08:31:04;101477.25;;;-10.58;63.62
72798;BME280;61084;55.816;37.036;2023-01-10T08:33:30;101477.38;;;-10.57;63.53
72798;BME280;61084;55.816;37.036;2023-01-10T08:35:56;101483.22;;;-10.58;63.65
72798;BME280;61084;55.816;37.036;2023-01-10T08:38:21;101480.88;;;-10.55;63.74
72798;BME280;61084;55.816;37.036;2023-01-10T08:40:47;101465.84;;;-10.52;63.82
72798;BME280;61084;55.816;37.036;2023-01-10T08:43:13;101476.50;;;-10.44;64.08
72798;BME280;61084;55.816;37.036;2023-01-10T08:45:39;101472.56;;;-10.39;63.96
72798;BME280;61084;55.816;37.036;2023-01-10T08:48:06;101466.63;;;-10.40;63.79
72798;BME280;61084;55.816;37.036;2023-01-10T08:50:34;101464.94;;;-10.39;63.73
72798;BME280;61084;55.816;37.036;2023-01-10T08:53:00;101459.09;;;-10.38;63.80
72798;BME280;61084;55.816;37.036;2023-01-10T08:55:27;101464.47;;;-10.34;64.06
72798;BME280;61084;55.816;37.036;2023-01-10T08:57:53;101460.28;;;-10.33;63.94
72798;BME280;61084;55.816;37.036;2023-01-10T09:00:20;101464.75;;;-10.29;63.86
72798;BME280;61084;55.816;37.036;2023-01-10T09:02:46;101455.75;;;-10.24;64.28
72798;BME280;61084;55.816;37.036;2023-01-10T09:05:11;101455.06;;;-10.22;64.09
72798;BME280;61084;55.816;37.036;2023-01-10T09:07:37;101454.47;;;-10.18;64.03
72798;BME280;61084;55.816;37.036;2023-01-10T09:10:05;101464.22;;;-10.11;64.15
72798;BME280;61084;55.816;37.036;2023-01-10T09:12:31;101462.63;;;-10.09;64.10
72798;BME280;61084;55.816;37.036;2023-01-10T09:15:16;101464.41;;;-10.08;64.29
72798;BME280;61084;55.816;37.036;2023-01-10T09:17:41;101463.59;;;-10.07;64.16
72798;BME280;61084;55.816;37.036;2023-01-10T09:20:08;101454.41;;;-10.05;64.25
72798;BME280;61084;55.816;37.036;2023-01-10T09:22:38;101453.03;;;-10.00;64.35
72798;BME280;61084;55.816;37.036;2023-01-10T09:25:05;101457.53;;;-9.95;64.44
72798;BME280;61084;55.816;37.036;2023-01-10T09:27:31;101464.38;;;-9.94;64.37
72798;BME280;61084;55.816;37.036;2023-01-10T09:29:57;101462.59;;;-9.95;64.49
72798;BME280;61084;55.816;37.036;2023-01-10T09:32:23;101457.81;;;-9.91;64.54
72798;BME280;61084;55.816;37.036;2023-01-10T09:34:49;101458.97;;;-9.86;64.60
72798;BME280;61084;55.816;37.036;2023-01-10T09:37:15;101451.44;;;-9.84;64.63
72798;BME280;61084;55.816;37.036;2023-01-10T09:39:42;101449.59;;;-9.87;64.65
72798;BME280;61084;55.816;37.036;2023-01-10T09:42:24;101456.03;;;-9.79;64.59
72798;BME280;61084;55.816;37.036;2023-01-10T09:50:15;101444.56;;;-9.72;64.87
72798;BME280;61084;55.816;37.036;2023-01-10T09:52:51;101445.63;;;-9.69;64.59
72798;BME280;61084;55.816;37.036;2023-01-10T09:55:35;101450.63;;;-9.70;64.99
72798;BME280;61084;55.816;37.036;2023-01-10T09:58:12;101448.44;;;-9.64;65.06
72798;BME280;61084;55.816;37.036;2023-01-10T10:00:47;101438.63;;;-9.58;64.84
72798;BME280;61084;55.816;37.036;2023-01-10T10:03:22;101437.94;;;-9.56;64.76
72798;BME280;61084;55.816;37.036;2023-01-10T10:05:50;101434.72;;;-9.53;64.59
72798;BME280;61084;55.816;37.036;2023-01-10T10:08:17;101439.97;;;-9.50;64.89
72798;BME280;61084;55.816;37.036;2023-01-10T10:17:13;101421.25;;;-9.38;65.05
72798;BME280;61084;55.816;37.036;2023-01-10T10:22:31;101433.44;;;-9.32;64.93
72798;BME280;61084;55.816;37.036;2023-01-10T10:30:32;101436.44;;;-9.25;64.63
72798;BME280;61084;55.816;37.036;2023-01-10T10:35:59;101421.78;;;-9.14;64.65
72798;BME280;61084;55.816;37.036;2023-01-10T10:38:30;101424.34;;;-9.14;64.47
72798;BME280;61084;55.816;37.036;2023-01-10T10:40:58;101425.22;;;-9.13;64.40
72798;BME280;61084;55.816;37.036;2023-01-10T10:43:37;101419.78;;;-9.05;64.50
72798;BME280;61084;55.816;37.036;2023-01-10T10:46:09;101423.28;;;-9.03;64.53
72798;BME280;61084;55.816;37.036;2023-01-10T10:49:03;101418.47;;;-8.98;64.22
72798;BME280;61084;55.816;37.036;2023-01-10T10:54:01;101407.81;;;-8.91;63.84
72798;BME280;61084;55.816;37.036;2023-01-10T10:56:28;101412.13;;;-8.90;64.29
72798;BME280;61084;55.816;37.036;2023-01-10T10:58:57;101428.44;;;-8.87;63.72
72798;BME280;61084;55.816;37.036;2023-01-10T11:01:24;101432.13;;;-8.82;64.20
72798;BME280;61084;55.816;37.036;2023-01-10T11:03:55;101429.84;;;-8.77;64.05
72798;BME280;61084;55.816;37.036;2023-01-10T11:06:24;101446.31;;;-8.71;63.96
72798;BME280;61084;55.816;37.036;2023-01-10T11:08:55;101432.47;;;-8.61;63.80
72798;BME280;61084;55.816;37.036;2023-01-10T11:11:30;101431.28;;;-8.52;63.98
72798;BME280;61084;55.816;37.036;2023-01-10T11:14:07;101429.06;;;-8.46;63.90
72798;BME280;61084;55.816;37.036;2023-01-10T11:16:40;101433.44;;;-8.43;63.70
72798;BME280;61084;55.816;37.036;2023-01-10T11:19:25;101448.09;;;-8.39;63.84
72798;BME280;61084;55.816;37.036;2023-01-10T11:21:58;101447.56;;;-8.33;63.48
72798;BME280;61084;55.816;37.036;2023-01-10T11:24:31;101446.13;;;-8.28;63.51
72798;BME280;61084;55.816;37.036;2023-01-10T11:27:21;101441.25;;;-8.24;63.36
72798;BME280;61084;55.816;37.036;2023-01-10T11:29:51;101449.06;;;-8.21;63.67
72798;BME280;61084;55.816;37.036;2023-01-10T11:32:25;101453.78;;;-8.12;63.14
72798;BME280;61084;55.816;37.036;2023-01-10T11:34:55;101445.50;;;-8.08;63.09
72798;BME280;61084;55.816;37.036;2023-01-10T11:37:30;101453.47;;;-8.02;63.29
72798;BME280;61084;55.816;37.036;2023-01-10T11:42:46;101425.88;;;-7.95;62.71
72798;BME280;61084;55.816;37.036;2023-01-10T11:45:23;101432.25;;;-7.87;62.82
72798;BME280;61084;55.816;37.036;2023-01-10T11:48:08;101441.56;;;-7.87;62.96
72798;BME280;61084;55.816;37.036;2023-01-10T11:50:42;101441.47;;;-7.89;62.35
72798;BME280;61084;55.816;37.036;2023-01-10T11:53:37;101432.25;;;-7.87;62.63
72798;BME280;61084;55.816;37.036;2023-01-10T11:56:04;101434.97;;;-7.84;62.17
72798;BME280;61084;55.816;37.036;2023-01-10T11:58:33;101435.69;;;-7.86;62.07
72798;BME280;61084;55.816;37.036;2023-01-10T12:01:00;101447.13;;;-7.78;62.01
72798;BME280;61084;55.816;37.036;2023-01-10T12:03:29;101453.13;;;-7.78;60.94
72798;BME280;61084;55.816;37.036;2023-01-10T12:06:00;101465.22;;;-7.74;61.84
72798;BME280;61084;55.816;37.036;2023-01-10T12:08:45;101461.31;;;-7.67;61.68
72798;BME280;61084;55.816;37.036;2023-01-10T12:13:47;101460.94;;;-7.58;61.75
72798;BME280;61084;55.816;37.036;2023-01-10T12:16:31;101476.16;;;-7.60;61.08
72798;BME280;61084;55.816;37.036;2023-01-10T12:19:03;101462.44;;;-7.62;61.65
72798;BME280;61084;55.816;37.036;2023-01-10T12:21:41;101467.47;;;-7.63;61.53
72798;BME280;61084;55.816;37.036;2023-01-10T12:24:27;101462.38;;;-7.63;61.90
72798;BME280;61084;55.816;37.036;2023-01-10T12:26:56;101464.06;;;-7.64;61.84
72798;BME280;61084;55.816;37.036;2023-01-10T12:29:26;101462.53;;;-7.60;61.54
72798;BME280;61084;55.816;37.036;2023-01-10T12:31:53;101466.75;;;-7.61;61.68
72798;BME280;61084;55.816;37.036;2023-01-10T12:34:33;101465.19;;;-7.59;61.90
72798;BME280;61084;55.816;37.036;2023-01-10T12:37:24;101466.03;;;-7.58;61.28
72798;BME280;61084;55.816;37.036;2023-01-10T12:40:05;101471.94;;;-7.59;61.33
72798;BME280;61084;55.816;37.036;2023-01-10T12:42:44;101467.72;;;-7.59;61.14
72798;BME280;61084;55.816;37.036;2023-01-10T12:45:36;101473.53;;;-7.61;61.37
72798;BME280;61084;55.816;37.036;2023-01-10T12:48:21;101488.00;;;-7.60;61.41
72798;BME280;61084;55.816;37.036;2023-01-10T12:50:56;101487.13;;;-7.61;61.34
72798;BME280;61084;55.816;37.036;2023-01-10T12:55:59;101494.00;;;-7.60;60.92
72798;BME280;61084;55.816;37.036;2023-01-10T13:01:04;101498.22;;;-7.60;61.58
72798;BME280;61084;55.816;37.036;2023-01-10T13:03:32;101500.13;;;-7.56;60.90
72798;BME280;61084;55.816;37.036;2023-01-10T13:05:59;101488.81;;;-7.61;60.90
72798;BME280;61084;55.816;37.036;2023-01-10T13:08:28;101486.28;;;-7.61;61.71
72798;BME280;61084;55.816;37.036;2023-01-10T13:10:57;101479.03;;;-7.70;61.56
72798;BME280;61084;55.816;37.036;2023-01-10T13:19:24;101486.88;;;-7.82;61.20
72798;BME280;61084;55.816;37.036;2023-01-10T13:22:18;101493.06;;;-7.93;60.21
72798;BME280;61084;55.816;37.036;2023-01-10T13:24:55;101491.16;;;-7.97;61.04
72798;BME280;61084;55.816;37.036;2023-01-10T13:27:22;101498.47;;;-8.03;59.86
72798;BME280;61084;55.816;37.036;2023-01-10T13:29:50;101496.72;;;-8.04;60.77
72798;BME280;61084;55.816;37.036;2023-01-10T13:32:30;101493.13;;;-8.07;60.55
72798;BME280;61084;55.816;37.036;2023-01-10T13:35:13;101493.66;;;-8.13;60.45
72798;BME280;61084;55.816;37.036;2023-01-10T13:37:42;101492.81;;;-8.13;60.26
72798;BME280;61084;55.816;37.036;2023-01-10T13:40:22;101493.59;;;-8.14;60.40
72798;BME280;61084;55.816;37.036;2023-01-10T13:51:36;101491.59;;;-8.20;60.51
72798;BME280;61084;55.816;37.036;2023-01-10T13:56:43;101495.88;;;-8.19;60.17
72798;BME280;61084;55.816;37.036;2023-01-10T14:02:20;101490.84;;;-8.17;60.02
72798;BME280;61084;55.816;37.036;2023-01-10T14:05:07;101493.41;;;-8.17;60.34
72798;BME280;61084;55.816;37.036;2023-01-10T14:10:25;101499.31;;;-8.18;60.07
72798;BME280;61084;55.816;37.036;2023-01-10T14:12:57;101507.81;;;-8.18;59.67
72798;BME280;61084;55.816;37.036;2023-01-10T14:15:28;101516.31;;;-8.17;60.53
72798;BME280;61084;55.816;37.036;2023-01-10T14:17:57;101506.38;;;-8.13;60.46
72798;BME280;61084;55.816;37.036;2023-01-10T14:20:24;101508.78;;;-8.16;60.05
72798;BME280;61084;55.816;37.036;2023-01-10T14:23:04;101504.31;;;-8.20;60.84
72798;BME280;61084;55.816;37.036;2023-01-10T14:25:35;101510.88;;;-8.23;59.90